createdAt,value
2018-09-24T00:00:52.896Z,45.60
2018-09-24T00:03:22.049Z,45.22
2018-09-24T00:05:51.172Z,44.86
2018-09-24T00:08:20.316Z,45.13
2018-09-24T00:10:49.424Z,45.12
2018-09-24T00:13:18.516Z,44.96
2018-09-24T00:15:47.723Z,44.87
2018-09-24T00:18:17.020Z,44.90
2018-09-24T00:20:46.189Z,45.11
2018-09-24T00:23:15.325Z,45.24
2018-09-24T00:25:44.512Z,45.28
2018-09-24T00:28:13.627Z,45.12
2018-09-24T00:30:42.883Z,45.24
2018-09-24T00:33:11.995Z,45.20
2018-09-24T00:35:41.109Z,45.56
2018-09-24T00:38:10.236Z,45.55
2018-09-24T00:40:39.411Z,45.54
2018-09-24T00:43:08.667Z,45.99
2018-09-24T00:45:37.875Z,45.95
2018-09-24T00:48:07.007Z,45.98
2018-09-24T00:50:36.249Z,46.06
2018-09-24T00:53:05.397Z,45.49
2018-09-24T00:55:34.493Z,45.57
2018-09-24T00:58:03.611Z,45.65
2018-09-24T01:00:32.727Z,45.66
2018-09-24T01:03:01.805Z,45.76
2018-09-24T01:05:30.983Z,45.65
2018-09-24T01:08:00.119Z,45.80
2018-09-24T01:10:29.279Z,45.69
2018-09-24T01:12:58.359Z,46.02
2018-09-24T01:15:27.504Z,45.76
2018-09-24T01:17:56.595Z,46.16
2018-09-24T01:20:25.683Z,46.31
2018-09-24T01:22:54.769Z,46.00
2018-09-24T01:25:23.957Z,45.89
2018-09-24T01:27:53.035Z,46.24
2018-09-24T01:30:22.279Z,45.96
2018-09-24T01:32:51.423Z,46.36
2018-09-24T01:35:20.527Z,46.44
2018-09-24T01:37:49.627Z,46.33
2018-09-24T01:40:18.799Z,46.41
2018-09-24T01:42:47.925Z,46.41
2018-09-24T01:45:17.006Z,46.36
2018-09-24T01:47:46.127Z,46.13
2018-09-24T01:50:15.254Z,46.28
2018-09-24T01:52:44.421Z,46.29
2018-09-24T01:55:13.503Z,46.51
2018-09-24T01:57:42.595Z,46.32
2018-09-24T02:00:11.683Z,46.27
2018-09-24T02:02:40.760Z,46.26
2018-09-24T02:05:15.602Z,45.90
2018-09-24T02:07:44.835Z,46.33
2018-09-24T02:10:13.917Z,46.26
2018-09-24T02:12:43.049Z,46.39
2018-09-24T02:15:12.335Z,46.19
2018-09-24T02:17:41.439Z,46.01
2018-09-24T02:20:10.631Z,46.03
2018-09-24T02:22:39.741Z,45.75
2018-09-24T02:25:08.815Z,45.60
2018-09-24T02:27:37.927Z,45.83
2018-09-24T02:30:07.428Z,45.46
2018-09-24T02:32:36.605Z,45.34
2018-09-24T02:35:05.717Z,45.16
2018-09-24T02:37:34.807Z,45.41
2018-09-24T02:40:03.980Z,45.36
2018-09-24T02:42:33.079Z,45.20
2018-09-24T02:45:02.157Z,45.06
2018-09-24T02:47:33.375Z,44.82
2018-09-24T02:50:03.511Z,44.99
2018-09-24T02:52:33.027Z,44.63
2018-09-24T02:55:02.133Z,44.53
2018-09-24T02:57:31.231Z,44.79
2018-09-24T03:00:00.343Z,44.31
2018-09-24T03:02:29.431Z,44.48
2018-09-24T03:04:58.533Z,44.49
2018-09-24T03:07:27.627Z,44.80
2018-09-24T03:09:56.708Z,44.72
2018-09-24T03:12:25.820Z,44.83
2018-09-24T03:14:54.896Z,44.71
2018-09-24T03:17:24.015Z,44.87
2018-09-24T03:19:53.119Z,44.96
2018-09-24T03:22:24.469Z,44.99
2018-09-24T03:24:54.531Z,45.49
2018-09-24T03:27:24.451Z,45.08
2018-09-24T03:29:53.557Z,45.28
2018-09-24T03:32:22.887Z,45.40
2018-09-24T03:34:52.076Z,45.18
2018-09-24T03:37:22.808Z,45.40
2018-09-24T03:39:52.217Z,45.19
2018-09-24T03:42:21.291Z,45.21
2018-09-24T03:44:50.536Z,45.54
2018-09-24T03:47:19.755Z,45.40
2018-09-24T03:49:48.932Z,45.27
2018-09-24T03:52:18.179Z,45.41
2018-09-24T03:54:47.333Z,44.83
2018-09-24T03:57:16.560Z,45.03
2018-09-24T03:59:45.719Z,45.02
2018-09-24T04:02:14.903Z,45.24
2018-09-24T04:04:49.348Z,45.11
2018-09-24T04:07:23.783Z,44.98
2018-09-24T04:09:58.448Z,45.05
2018-09-24T04:12:33.415Z,45.30
2018-09-24T04:15:07.717Z,45.19
2018-09-24T04:17:42.192Z,45.08
2018-09-24T04:20:16.580Z,45.08
2018-09-24T04:22:50.967Z,45.36
2018-09-24T04:25:25.463Z,45.41
2018-09-24T04:27:59.868Z,45.41
2018-09-24T04:30:34.342Z,45.09
2018-09-24T04:33:08.840Z,45.17
2018-09-24T04:35:43.168Z,45.18
2018-09-24T04:38:17.707Z,45.37
2018-09-24T04:40:52.244Z,45.34
2018-09-24T04:43:26.616Z,45.44
2018-09-24T04:46:01.036Z,45.25
2018-09-24T04:48:35.599Z,45.10
2018-09-24T04:51:10.046Z,45.38
2018-09-24T04:53:44.602Z,45.43
2018-09-24T04:56:19.642Z,45.24
2018-09-24T04:58:54.011Z,45.15
2018-09-24T05:01:28.364Z,45.08
2018-09-24T05:04:02.784Z,45.09
2018-09-24T05:06:37.120Z,45.02
2018-09-24T05:09:13.231Z,45.18
2018-09-24T05:11:47.726Z,45.32
2018-09-24T05:14:22.107Z,45.34
2018-09-24T05:16:56.492Z,45.63
2018-09-24T05:19:31.444Z,45.54
2018-09-24T05:22:05.926Z,45.44
2018-09-24T05:24:40.584Z,45.38
2018-09-24T05:27:14.956Z,45.48
2018-09-24T05:29:49.523Z,45.46
2018-09-24T05:32:23.984Z,45.51
2018-09-24T05:34:58.521Z,45.33
2018-09-24T05:37:33.107Z,45.56
2018-09-24T05:40:07.521Z,45.43
2018-09-24T05:42:42.320Z,45.78
2018-09-24T05:45:16.648Z,45.84
2018-09-24T05:47:51.226Z,45.80
2018-09-24T05:50:25.803Z,45.67
2018-09-24T05:53:00.227Z,45.34
2018-09-24T05:55:41.336Z,45.49
2018-09-24T05:58:16.158Z,45.43
2018-09-24T06:00:50.664Z,45.68
2018-09-24T06:03:25.013Z,45.17
2018-09-24T06:05:59.481Z,44.73
2018-09-24T06:08:33.916Z,45.08
2018-09-24T06:11:08.360Z,45.21
2018-09-24T06:13:42.709Z,44.72
2018-09-24T06:16:17.496Z,44.34
2018-09-24T06:18:51.846Z,44.44
2018-09-24T06:21:26.220Z,44.24
2018-09-24T06:24:00.761Z,44.34
2018-09-24T06:26:35.106Z,44.70
2018-09-24T06:32:04.248Z,44.70
2018-09-24T06:34:38.630Z,44.73
2018-09-24T06:37:13.068Z,44.72
2018-09-24T06:39:47.448Z,44.96
2018-09-24T06:42:22.036Z,44.55
2018-09-24T06:44:56.524Z,44.59
2018-09-24T06:47:30.872Z,44.24
2018-09-24T06:50:05.236Z,44.48
2018-09-24T06:52:39.644Z,44.15
2018-09-24T06:55:14.066Z,44.30
2018-09-24T06:57:48.481Z,44.34
2018-09-24T07:00:22.953Z,44.41
2018-09-24T07:02:57.349Z,44.61
2018-09-24T07:05:31.825Z,44.57
2018-09-24T07:08:06.397Z,44.48
2018-09-24T07:10:40.940Z,44.76
2018-09-24T07:13:15.433Z,44.37
2018-09-24T07:15:50.518Z,44.59
2018-09-24T07:18:25.104Z,44.45
2018-09-24T07:20:59.518Z,44.37
2018-09-24T07:23:34.153Z,44.69
2018-09-24T07:26:08.611Z,44.85
2018-09-24T07:28:43.221Z,44.69
2018-09-24T07:31:17.681Z,44.61
2018-09-24T07:33:52.284Z,44.46
2018-09-24T07:36:26.697Z,44.59
2018-09-24T07:39:01.307Z,44.43
2018-09-24T07:41:35.846Z,44.85
2018-09-24T07:44:10.267Z,44.44
2018-09-24T07:46:44.636Z,44.54
2018-09-24T07:49:19.084Z,44.33
2018-09-24T07:51:53.587Z,44.30
2018-09-24T07:54:28.164Z,44.25
2018-09-24T07:57:02.729Z,44.42
2018-09-24T07:59:37.185Z,44.33
2018-09-24T08:02:11.771Z,44.34
2018-09-24T08:04:46.220Z,44.31
2018-09-24T08:07:20.684Z,44.52
2018-09-24T08:09:55.358Z,44.29
2018-09-24T08:12:29.669Z,45.00
2018-09-24T08:15:04.201Z,45.26
2018-09-24T08:17:38.711Z,45.78
2018-09-24T08:20:13.134Z,45.84
2018-09-24T08:22:47.495Z,46.41
2018-09-24T08:25:21.874Z,46.38
2018-09-24T08:27:56.438Z,46.34
2018-09-24T08:30:30.825Z,46.01
2018-09-24T08:33:05.190Z,44.93
2018-09-24T08:35:39.651Z,44.97
2018-09-24T08:38:14.090Z,44.84
2018-09-24T08:40:48.770Z,44.38
2018-09-24T08:43:23.172Z,44.40
2018-09-24T08:45:57.530Z,44.05
2018-09-24T08:48:31.880Z,44.82
2018-09-24T08:51:06.252Z,44.25
2018-09-24T08:53:40.721Z,43.75
2018-09-24T08:56:15.235Z,43.79
2018-09-24T08:58:49.582Z,43.41
2018-09-24T09:01:24.183Z,43.03
2018-09-24T09:03:58.571Z,43.30
2018-09-24T09:06:32.927Z,42.82
2018-09-24T09:09:15.044Z,43.13
2018-09-24T09:11:49.646Z,43.08
2018-09-24T09:14:24.173Z,42.87
2018-09-24T09:16:58.492Z,42.84
2018-09-24T09:19:32.902Z,42.87
2018-09-24T09:22:07.367Z,42.37
2018-09-24T09:24:41.811Z,42.63
2018-09-24T09:27:16.157Z,43.10
2018-09-24T09:29:50.546Z,43.40
2018-09-24T09:32:24.981Z,43.83
2018-09-24T09:34:59.364Z,43.91
2018-09-24T09:37:33.860Z,43.74
2018-09-24T09:40:08.263Z,43.25
2018-09-24T09:42:42.554Z,43.24
2018-09-24T09:45:16.967Z,42.98
2018-09-24T09:47:51.382Z,42.82
2018-09-24T09:50:25.959Z,43.74
2018-09-24T09:53:00.483Z,44.02
2018-09-24T09:55:34.769Z,44.22
2018-09-24T09:58:09.236Z,43.95
2018-09-24T10:00:43.678Z,43.99
2018-09-24T10:03:18.095Z,43.68
2018-09-24T10:05:52.620Z,43.84
2018-09-24T10:08:27.105Z,43.65
2018-09-24T10:11:01.471Z,43.76
2018-09-24T10:13:36.011Z,43.86
2018-09-24T10:16:10.479Z,43.61
2018-09-24T10:18:44.902Z,43.54
2018-09-24T10:21:19.322Z,43.00
2018-09-24T10:23:53.721Z,43.48
2018-09-24T10:26:28.156Z,43.86
2018-09-24T10:29:02.706Z,44.01
2018-09-24T10:31:37.248Z,43.98
2018-09-24T10:34:11.837Z,43.55
2018-09-24T10:36:46.354Z,43.01
2018-09-24T10:39:20.892Z,43.00
2018-09-24T10:41:55.282Z,42.34
2018-09-24T10:44:29.940Z,42.25
2018-09-24T10:47:04.415Z,41.87
2018-09-24T10:49:38.896Z,41.96
2018-09-24T10:52:13.278Z,41.77
2018-09-24T10:54:47.630Z,40.91
2018-09-24T10:57:22.140Z,41.12
2018-09-24T10:59:56.500Z,41.34
2018-09-24T11:02:30.852Z,41.13
2018-09-24T11:05:05.488Z,41.12
2018-09-24T11:07:39.931Z,40.68
2018-09-24T11:10:14.375Z,41.04
2018-09-24T11:12:48.993Z,40.90
2018-09-24T11:15:23.457Z,40.57
2018-09-24T11:17:57.936Z,39.98
2018-09-24T11:20:32.535Z,40.41
2018-09-24T11:23:06.828Z,40.06
2018-09-24T11:25:41.248Z,39.21
2018-09-24T11:28:15.657Z,38.57
2018-09-24T11:30:50.060Z,39.18
2018-09-24T11:33:24.639Z,38.77
2018-09-24T11:35:59.005Z,39.12
2018-09-24T11:38:33.467Z,39.06
2018-09-24T11:41:07.997Z,38.84
2018-09-24T11:43:42.395Z,39.19
2018-09-24T11:46:17.007Z,39.00
2018-09-24T11:48:51.448Z,39.40
2018-09-24T11:51:25.876Z,39.86
2018-09-24T11:54:00.301Z,39.97
2018-09-24T11:56:34.789Z,39.70
2018-09-24T11:59:09.132Z,39.52
2018-09-24T12:01:43.603Z,39.29
2018-09-24T12:04:18.147Z,39.12
2018-09-24T12:06:52.627Z,38.98
2018-09-24T12:09:27.271Z,38.55
2018-09-24T12:12:01.712Z,38.00
2018-09-24T12:14:36.064Z,37.54
2018-09-24T12:17:10.518Z,37.41
2018-09-24T12:19:45.035Z,37.38
2018-09-24T12:22:19.551Z,37.69
2018-09-24T12:24:53.976Z,36.87
2018-09-24T12:27:28.289Z,36.29
2018-09-24T12:30:02.654Z,35.59
2018-09-24T12:32:37.075Z,35.21
2018-09-24T12:35:11.384Z,35.23
2018-09-24T12:37:45.743Z,34.57
2018-09-24T12:40:20.322Z,33.71
2018-09-24T12:42:54.779Z,33.64
2018-09-24T12:45:29.219Z,33.55
2018-09-24T12:48:03.658Z,32.81
2018-09-24T12:50:38.284Z,32.77
2018-09-24T12:53:12.678Z,33.34
2018-09-24T12:55:46.993Z,33.57
2018-09-24T12:58:21.289Z,33.06
2018-09-24T13:00:55.664Z,32.82
2018-09-24T13:03:30.040Z,33.01
2018-09-24T13:06:04.598Z,33.24
2018-09-24T13:08:39.115Z,33.79
2018-09-24T13:11:13.579Z,33.83
2018-09-24T13:13:47.953Z,34.24
2018-09-24T13:16:22.294Z,34.55
2018-09-24T13:18:56.793Z,34.39
2018-09-24T13:21:31.270Z,34.76
2018-09-24T13:24:05.769Z,34.67
2018-09-24T13:26:40.171Z,34.26
2018-09-24T13:29:14.626Z,34.54
2018-09-24T13:31:49.130Z,34.24
2018-09-24T13:34:23.640Z,34.02
2018-09-24T13:36:58.163Z,32.69
2018-09-24T13:39:32.778Z,33.07
2018-09-24T13:42:07.312Z,32.30
2018-09-24T13:44:41.644Z,31.91
2018-09-24T13:47:16.053Z,32.03
2018-09-24T13:49:50.473Z,31.49
2018-09-24T13:52:25.173Z,31.71
2018-09-24T13:54:59.783Z,31.61
2018-09-24T13:57:34.240Z,31.19
2018-09-24T14:00:08.628Z,31.04
2018-09-24T14:02:43.191Z,31.33
2018-09-24T14:05:17.515Z,30.83
2018-09-24T14:07:52.005Z,31.21
2018-09-24T14:10:26.445Z,31.34
2018-09-24T14:13:01.026Z,31.03
2018-09-24T14:15:35.470Z,30.92
2018-09-24T14:18:10.081Z,30.76
2018-09-24T14:20:44.572Z,31.11
2018-09-24T14:23:19.024Z,31.26
2018-09-24T14:25:53.344Z,31.30
2018-09-24T14:28:27.712Z,31.60
2018-09-24T14:31:02.011Z,31.47
2018-09-24T14:33:36.343Z,31.12
2018-09-24T14:36:10.856Z,31.09
2018-09-24T14:38:45.400Z,31.34
2018-09-24T14:41:19.800Z,31.73
2018-09-24T14:43:54.125Z,32.03
2018-09-24T14:46:28.652Z,31.84
2018-09-24T14:49:03.020Z,32.00
2018-09-24T14:51:37.363Z,32.50
2018-09-24T14:54:11.813Z,32.45
2018-09-24T14:56:46.229Z,32.46
2018-09-24T14:59:20.519Z,32.29
2018-09-24T15:01:54.998Z,31.89
2018-09-24T15:04:29.496Z,31.78
2018-09-24T15:07:03.887Z,32.14
2018-09-24T15:09:38.203Z,31.97
2018-09-24T15:12:12.793Z,32.12
2018-09-24T15:14:47.277Z,32.40
2018-09-24T15:17:35.851Z,32.34
2018-09-24T15:20:10.267Z,32.88
2018-09-24T15:22:44.861Z,33.07
2018-09-24T15:25:19.403Z,33.21
2018-09-24T15:27:53.919Z,33.69
2018-09-24T15:30:28.557Z,33.43
2018-09-24T15:33:03.083Z,33.55
2018-09-24T15:35:37.427Z,34.30
2018-09-24T15:38:12.021Z,34.05
2018-09-24T15:40:47.585Z,34.50
2018-09-24T15:43:22.083Z,34.40
2018-09-24T15:45:56.435Z,34.37
2018-09-24T15:48:31.233Z,34.38
2018-09-24T15:51:05.724Z,34.55
2018-09-24T15:53:40.080Z,34.43
2018-09-24T15:56:14.709Z,34.40
2018-09-24T15:58:49.151Z,34.66
2018-09-24T16:01:23.547Z,34.50
2018-09-24T16:03:58.059Z,34.59
2018-09-24T16:06:32.605Z,34.77
2018-09-24T16:09:07.286Z,34.65
2018-09-24T16:11:41.855Z,34.88
2018-09-24T16:14:16.275Z,35.02
2018-09-24T16:16:50.594Z,34.74
2018-09-24T16:19:25.131Z,34.97
2018-09-24T16:21:59.511Z,35.07
2018-09-24T16:24:33.949Z,35.24
2018-09-24T16:27:08.355Z,35.26
2018-09-24T16:29:42.899Z,34.62
2018-09-24T16:32:17.289Z,34.80
2018-09-24T16:34:51.751Z,34.69
2018-09-24T16:37:26.199Z,34.52
2018-09-24T16:40:00.689Z,35.33
2018-09-24T16:42:35.053Z,34.95
2018-09-24T16:45:09.668Z,34.90
2018-09-24T16:47:44.007Z,34.89
2018-09-24T16:50:18.427Z,35.50
2018-09-24T16:52:52.863Z,35.51
2018-09-24T16:55:27.299Z,35.44
2018-09-24T16:58:01.766Z,36.23
2018-09-24T17:00:36.346Z,36.00
2018-09-24T17:03:10.890Z,36.57
2018-09-24T17:05:45.443Z,36.48
2018-09-24T17:08:19.961Z,36.08
2018-09-24T17:10:54.311Z,36.42
2018-09-24T17:13:28.757Z,36.58
2018-09-24T17:16:03.177Z,36.37
2018-09-24T17:18:37.711Z,36.78
2018-09-24T17:21:12.279Z,37.11
2018-09-24T17:23:46.776Z,37.31
2018-09-24T17:26:21.155Z,37.17
2018-09-24T17:28:55.711Z,36.94
2018-09-24T17:31:30.118Z,36.46
2018-09-24T17:34:04.653Z,36.52
2018-09-24T17:36:39.020Z,36.39
2018-09-24T17:39:14.242Z,36.13
2018-09-24T17:41:48.676Z,36.48
2018-09-24T17:44:22.991Z,36.28
2018-09-24T17:46:57.407Z,36.37
2018-09-24T17:49:31.948Z,36.16
2018-09-24T17:52:06.423Z,35.86
2018-09-24T17:54:40.937Z,36.09
2018-09-24T17:57:15.461Z,35.74
2018-09-24T17:59:49.855Z,35.76
2018-09-24T18:02:24.502Z,36.30
2018-09-24T18:04:58.819Z,35.89
2018-09-24T18:07:33.289Z,36.13
2018-09-24T18:10:07.663Z,36.30
2018-09-24T18:12:42.080Z,36.64
2018-09-24T18:15:16.601Z,36.69
2018-09-24T18:17:51.203Z,36.82
2018-09-24T18:20:26.128Z,37.06
2018-09-24T18:23:00.579Z,37.13
2018-09-24T18:25:35.207Z,37.33
2018-09-24T18:28:09.576Z,37.12
2018-09-24T18:30:44.041Z,37.27
2018-09-24T18:33:18.494Z,37.19
2018-09-24T18:35:52.856Z,37.50
2018-09-24T18:38:27.337Z,37.51
2018-09-24T18:41:01.706Z,37.58
2018-09-24T18:43:36.460Z,37.92
2018-09-24T18:46:10.998Z,37.95
2018-09-24T18:48:45.311Z,37.84
2018-09-24T18:51:19.717Z,37.66
2018-09-24T18:53:54.071Z,37.84
2018-09-24T18:56:28.443Z,37.60
2018-09-24T18:59:02.799Z,38.13
2018-09-24T19:01:37.311Z,38.02
2018-09-24T19:04:11.895Z,37.64
2018-09-24T19:06:46.607Z,37.73
2018-09-24T19:09:21.088Z,37.76
2018-09-24T19:11:55.316Z,37.88
2018-09-24T19:14:29.812Z,37.84
2018-09-24T19:17:04.116Z,38.06
2018-09-24T19:19:38.500Z,38.06
2018-09-24T19:22:12.848Z,38.32
2018-09-24T19:24:47.188Z,38.28
2018-09-24T19:27:21.490Z,38.10
2018-09-24T19:29:56.085Z,38.27
2018-09-24T19:32:30.540Z,38.19
2018-09-24T19:35:04.928Z,38.71
2018-09-24T19:37:39.429Z,38.54
2018-09-24T19:40:13.908Z,38.22
2018-09-24T19:42:48.448Z,38.23
2018-09-24T19:45:23.069Z,38.38
2018-09-24T19:47:57.608Z,38.62
2018-09-24T19:50:31.948Z,38.55
2018-09-24T19:53:06.329Z,38.56
2018-09-24T19:55:40.732Z,38.56
2018-09-24T19:58:15.520Z,38.93
2018-09-24T20:00:49.925Z,39.25
2018-09-24T20:03:24.548Z,39.05
2018-09-24T20:05:58.911Z,39.22
2018-09-24T20:08:33.468Z,39.29
2018-09-24T20:11:07.884Z,39.26
2018-09-24T20:13:42.484Z,39.29
2018-09-24T20:16:16.872Z,39.40
2018-09-24T20:18:51.232Z,39.25
2018-09-24T20:21:25.624Z,39.36
2018-09-24T20:23:59.974Z,39.56
2018-09-24T20:26:34.413Z,39.48
2018-09-24T20:29:08.856Z,39.28
2018-09-24T20:31:43.265Z,39.42
2018-09-24T20:34:17.682Z,39.08
2018-09-24T20:36:52.230Z,39.39
2018-09-24T20:39:26.647Z,39.26
2018-09-24T20:42:01.249Z,39.11
2018-09-24T20:44:35.652Z,39.40
2018-09-24T20:47:09.974Z,39.49
2018-09-24T20:49:44.353Z,39.34
2018-09-24T20:52:18.713Z,39.62
2018-09-24T20:54:53.119Z,39.29
2018-09-24T20:57:35.398Z,39.47
2018-09-24T21:00:10.324Z,39.70
2018-09-24T21:02:44.665Z,39.57
2018-09-24T21:05:19.216Z,39.75
2018-09-24T21:07:53.776Z,39.83
2018-09-24T21:10:28.144Z,39.37
2018-09-24T21:13:02.574Z,39.56
2018-09-24T21:15:37.084Z,39.63
2018-09-24T21:18:11.531Z,39.57
2018-09-24T21:20:46.143Z,39.66
2018-09-24T21:23:20.572Z,39.72
2018-09-24T21:25:55.214Z,39.81
2018-09-24T21:28:29.700Z,39.76
2018-09-24T21:31:04.077Z,39.68
2018-09-24T21:33:38.492Z,39.93
2018-09-24T21:36:12.968Z,39.58
2018-09-24T21:38:47.592Z,39.71
2018-09-24T21:41:22.168Z,40.08
2018-09-24T21:43:56.661Z,40.14
2018-09-24T21:46:31.127Z,39.78
2018-09-24T21:49:05.720Z,39.81
2018-09-24T21:51:40.131Z,40.07
2018-09-24T21:54:14.544Z,40.15
2018-09-24T21:56:49.190Z,40.18
2018-09-24T21:59:23.696Z,40.20
2018-09-24T22:01:58.039Z,40.26
2018-09-24T22:04:32.324Z,40.06
2018-09-24T22:07:06.860Z,39.84
2018-09-24T22:09:41.394Z,40.21
2018-09-24T22:12:15.889Z,40.29
2018-09-24T22:14:50.241Z,40.16
2018-09-24T22:17:24.662Z,40.24
2018-09-24T22:19:59.042Z,40.32
2018-09-24T22:22:33.664Z,40.27
2018-09-24T22:25:08.092Z,39.94
2018-09-24T22:27:42.558Z,40.12
2018-09-24T22:30:16.960Z,40.38
2018-09-24T22:32:51.421Z,40.06
2018-09-24T22:35:25.880Z,40.41
2018-09-24T22:38:00.172Z,40.24
2018-09-24T22:40:34.617Z,40.21
2018-09-24T22:43:09.112Z,40.41
2018-09-24T22:45:43.465Z,40.57
2018-09-24T22:48:17.820Z,40.29
2018-09-24T22:50:52.189Z,40.33
2018-09-24T22:53:26.694Z,40.62
2018-09-24T22:56:01.015Z,40.53
2018-09-24T22:58:35.356Z,40.68
2018-09-24T23:01:09.972Z,40.55
2018-09-24T23:03:44.421Z,40.80
2018-09-24T23:06:18.707Z,40.56
2018-09-24T23:08:53.144Z,40.40
2018-09-24T23:11:27.589Z,40.63
2018-09-24T23:14:02.119Z,40.65
2018-09-24T23:16:36.630Z,40.63
2018-09-24T23:19:11.074Z,40.69
2018-09-24T23:21:45.426Z,40.48
2018-09-24T23:24:19.940Z,40.56
2018-09-24T23:26:54.340Z,40.75
2018-09-24T23:29:28.703Z,40.90
2018-09-24T23:32:03.080Z,40.95
2018-09-24T23:34:37.567Z,40.84
2018-09-24T23:37:11.935Z,40.86
2018-09-24T23:39:46.220Z,40.99
2018-09-24T23:42:20.761Z,40.75
2018-09-24T23:44:55.170Z,40.77
2018-09-24T23:47:29.572Z,41.10
2018-09-24T23:50:03.879Z,41.21
2018-09-24T23:52:38.359Z,40.97
2018-09-24T23:55:12.740Z,40.83
2018-09-24T23:57:47.286Z,41.24
